<?xml version="1.0" encoding="UTF-8" standalone="no" ?>
<gpx xmlns="http://www.topografix.com/GPX/1/1" xmlns:xsi="http://www.w3.org/2001/XMLSchema-instance" xsi:schemaLocation="http://www.topografix.com/GPX/1/1 http://www.topografix.com/GPX/1/1/gpx.xsd" version="1.1" creator="VisuGPX - https://www.visugpx.com">
  <metadata>
    <name>La Tête de Louis XVI</name>
  </metadata>
  <wpt lat="44.41081" lon="6.46977">
    <ele>1389</ele>
    <name><![CDATA[Parking]]></name>
  </wpt>
  <wpt lat="44.41918" lon="6.47019">
    <ele>1772</ele>
    <name><![CDATA[Roche Juan Granges]]></name>
  </wpt>
  <wpt lat="44.42684" lon="6.48042">
    <ele>1970</ele>
    <name><![CDATA[Chalet en ruines]]></name>
  </wpt>
  <wpt lat="44.42055" lon="6.48971">
    <ele>2274</ele>
    <name><![CDATA[Faux col sous la Tête de Louis XVI]]></name>
  </wpt>
  <wpt lat="44.41074" lon="6.46977">
    <ele>1387</ele>
    <name><![CDATA[Parking]]></name>
  </wpt>
  <trk>
    <name><![CDATA[La Tête de Louis XVI]]></name>
    <trkseg>
      <trkpt lat="44.41081" lon="6.46977">
        <ele>1389</ele>
        <time>2021-06-10T16:40:29+02:00</time>
      </trkpt>
      <trkpt lat="44.41113" lon="6.46977">
        <ele>1390</ele>
        <time>2021-06-10T16:40:34+02:00</time>
      </trkpt>
      <trkpt lat="44.4111" lon="6.47092">
        <ele>1409</ele>
        <time>2021-06-10T16:40:39+02:00</time>
      </trkpt>
      <trkpt lat="44.41103" lon="6.47207">
        <ele>1426</ele>
        <time>2021-06-10T16:40:44+02:00</time>
      </trkpt>
      <trkpt lat="44.41228" lon="6.47181">
        <ele>1431</ele>
        <time>2021-06-10T16:40:49+02:00</time>
      </trkpt>
      <trkpt lat="44.41322" lon="6.47202">
        <ele>1435</ele>
        <time>2021-06-10T16:40:54+02:00</time>
      </trkpt>
      <trkpt lat="44.41376" lon="6.47218">
        <ele>1439</ele>
        <time>2021-06-10T16:40:59+02:00</time>
      </trkpt>
      <trkpt lat="44.41419" lon="6.47197">
        <ele>1427</ele>
        <time>2021-06-10T16:41:04+02:00</time>
      </trkpt>
      <trkpt lat="44.41498" lon="6.47254">
        <ele>1457</ele>
        <time>2021-06-10T16:41:09+02:00</time>
      </trkpt>
      <trkpt lat="44.41534" lon="6.47212">
        <ele>1464</ele>
        <time>2021-06-10T16:41:14+02:00</time>
      </trkpt>
      <trkpt lat="44.41577" lon="6.47113">
        <ele>1464</ele>
        <time>2021-06-10T16:41:19+02:00</time>
      </trkpt>
      <trkpt lat="44.41616" lon="6.47113">
        <ele>1502</ele>
        <time>2021-06-10T16:41:24+02:00</time>
      </trkpt>
      <trkpt lat="44.41652" lon="6.4703">
        <ele>1526</ele>
        <time>2021-06-10T16:41:29+02:00</time>
      </trkpt>
      <trkpt lat="44.41652" lon="6.4692">
        <ele>1584</ele>
        <time>2021-06-10T16:41:34+02:00</time>
      </trkpt>
      <trkpt lat="44.4166" lon="6.46847">
        <ele>1573</ele>
        <time>2021-06-10T16:41:39+02:00</time>
      </trkpt>
      <trkpt lat="44.41706" lon="6.46847">
        <ele>1620</ele>
        <time>2021-06-10T16:41:44+02:00</time>
      </trkpt>
      <trkpt lat="44.41714" lon="6.46758">
        <ele>1580</ele>
        <time>2021-06-10T16:41:49+02:00</time>
      </trkpt>
      <trkpt lat="44.41793" lon="6.46737">
        <ele>1630</ele>
        <time>2021-06-10T16:41:54+02:00</time>
      </trkpt>
      <trkpt lat="44.41846" lon="6.46842">
        <ele>1703</ele>
        <time>2021-06-10T16:41:59+02:00</time>
      </trkpt>
      <trkpt lat="44.41987" lon="6.4691">
        <ele>1728</ele>
        <time>2021-06-10T16:42:04+02:00</time>
      </trkpt>
      <trkpt lat="44.41922" lon="6.46941">
        <ele>1749</ele>
        <time>2021-06-10T16:42:09+02:00</time>
      </trkpt>
      <trkpt lat="44.41954" lon="6.46998">
        <ele>1765</ele>
        <time>2021-06-10T16:42:14+02:00</time>
      </trkpt>
      <trkpt lat="44.41918" lon="6.47019">
        <ele>1772</ele>
        <time>2021-06-10T16:42:19+02:00</time>
      </trkpt>
      <trkpt lat="44.41997" lon="6.47108">
        <ele>1799</ele>
        <time>2021-06-10T16:42:24+02:00</time>
      </trkpt>
      <trkpt lat="44.4208" lon="6.47139">
        <ele>1806</ele>
        <time>2021-06-10T16:42:29+02:00</time>
      </trkpt>
      <trkpt lat="44.42173" lon="6.47186">
        <ele>1823</ele>
        <time>2021-06-10T16:42:34+02:00</time>
      </trkpt>
      <trkpt lat="44.42191" lon="6.47296">
        <ele>1852</ele>
        <time>2021-06-10T16:42:39+02:00</time>
      </trkpt>
      <trkpt lat="44.42231" lon="6.47411">
        <ele>1864</ele>
        <time>2021-06-10T16:42:44+02:00</time>
      </trkpt>
      <trkpt lat="44.42195" lon="6.47473">
        <ele>1888</ele>
        <time>2021-06-10T16:42:49+02:00</time>
      </trkpt>
      <trkpt lat="44.42303" lon="6.47593">
        <ele>1886</ele>
        <time>2021-06-10T16:42:54+02:00</time>
      </trkpt>
      <trkpt lat="44.42393" lon="6.4774">
        <ele>1895</ele>
        <time>2021-06-10T16:42:59+02:00</time>
      </trkpt>
      <trkpt lat="44.42418" lon="6.47818">
        <ele>1916</ele>
        <time>2021-06-10T16:43:04+02:00</time>
      </trkpt>
      <trkpt lat="44.42554" lon="6.47896">
        <ele>1923</ele>
        <time>2021-06-10T16:43:09+02:00</time>
      </trkpt>
      <trkpt lat="44.42572" lon="6.4799">
        <ele>1944</ele>
        <time>2021-06-10T16:43:14+02:00</time>
      </trkpt>
      <trkpt lat="44.42612" lon="6.48042">
        <ele>1957</ele>
        <time>2021-06-10T16:43:19+02:00</time>
      </trkpt>
      <trkpt lat="44.42612" lon="6.48074">
        <ele>1964</ele>
        <time>2021-06-10T16:43:24+02:00</time>
      </trkpt>
      <trkpt lat="44.42684" lon="6.48042">
        <ele>1970</ele>
        <time>2021-06-10T16:43:29+02:00</time>
      </trkpt>
      <trkpt lat="44.4259" lon="6.48183">
        <ele>1990</ele>
        <time>2021-06-10T16:43:34+02:00</time>
      </trkpt>
      <trkpt lat="44.42565" lon="6.48272">
        <ele>2015</ele>
        <time>2021-06-10T16:43:39+02:00</time>
      </trkpt>
      <trkpt lat="44.42436" lon="6.48392">
        <ele>2053</ele>
        <time>2021-06-10T16:43:44+02:00</time>
      </trkpt>
      <trkpt lat="44.424" lon="6.48449">
        <ele>2061</ele>
        <time>2021-06-10T16:43:49+02:00</time>
      </trkpt>
      <trkpt lat="44.42364" lon="6.48517">
        <ele>2071</ele>
        <time>2021-06-10T16:43:54+02:00</time>
      </trkpt>
      <trkpt lat="44.4226" lon="6.48617">
        <ele>2115</ele>
        <time>2021-06-10T16:43:59+02:00</time>
      </trkpt>
      <trkpt lat="44.42245" lon="6.48684">
        <ele>2135</ele>
        <time>2021-06-10T16:44:04+02:00</time>
      </trkpt>
      <trkpt lat="44.42155" lon="6.4869">
        <ele>2165</ele>
        <time>2021-06-10T16:44:09+02:00</time>
      </trkpt>
      <trkpt lat="44.42138" lon="6.48883">
        <ele>2238</ele>
        <time>2021-06-10T16:44:14+02:00</time>
      </trkpt>
      <trkpt lat="44.42116" lon="6.4894">
        <ele>2262</ele>
        <time>2021-06-10T16:44:19+02:00</time>
      </trkpt>
      <trkpt lat="44.42055" lon="6.48971">
        <ele>2274</ele>
        <time>2021-06-10T16:44:24+02:00</time>
      </trkpt>
      <trkpt lat="44.41958" lon="6.4894">
        <ele>2292</ele>
        <time>2021-06-10T16:44:29+02:00</time>
      </trkpt>
      <trkpt lat="44.4189" lon="6.48904">
        <ele>2313</ele>
        <time>2021-06-10T16:44:34+02:00</time>
      </trkpt>
      <trkpt lat="44.41814" lon="6.48841">
        <ele>2351</ele>
        <time>2021-06-10T16:44:39+02:00</time>
      </trkpt>
      <trkpt lat="44.41739" lon="6.48778">
        <ele>2375</ele>
        <time>2021-06-10T16:44:44+02:00</time>
      </trkpt>
      <trkpt lat="44.41828" lon="6.48851">
        <ele>2344</ele>
        <time>2021-06-10T16:44:49+02:00</time>
      </trkpt>
      <trkpt lat="44.4194" lon="6.4894">
        <ele>2297</ele>
        <time>2021-06-10T16:44:54+02:00</time>
      </trkpt>
      <trkpt lat="44.42069" lon="6.48977">
        <ele>2274</ele>
        <time>2021-06-10T16:44:59+02:00</time>
      </trkpt>
      <trkpt lat="44.42138" lon="6.48888">
        <ele>2241</ele>
        <time>2021-06-10T16:45:04+02:00</time>
      </trkpt>
      <trkpt lat="44.42163" lon="6.48695">
        <ele>2163</ele>
        <time>2021-06-10T16:45:09+02:00</time>
      </trkpt>
      <trkpt lat="44.42242" lon="6.48684">
        <ele>2136</ele>
        <time>2021-06-10T16:45:14+02:00</time>
      </trkpt>
      <trkpt lat="44.4227" lon="6.48611">
        <ele>2111</ele>
        <time>2021-06-10T16:45:19+02:00</time>
      </trkpt>
      <trkpt lat="44.42367" lon="6.48502">
        <ele>2067</ele>
        <time>2021-06-10T16:45:24+02:00</time>
      </trkpt>
      <trkpt lat="44.42429" lon="6.48387">
        <ele>2055</ele>
        <time>2021-06-10T16:45:29+02:00</time>
      </trkpt>
      <trkpt lat="44.42482" lon="6.4834">
        <ele>2043</ele>
        <time>2021-06-10T16:45:34+02:00</time>
      </trkpt>
      <trkpt lat="44.42583" lon="6.48241">
        <ele>2003</ele>
        <time>2021-06-10T16:45:39+02:00</time>
      </trkpt>
      <trkpt lat="44.42601" lon="6.48183">
        <ele>1990</ele>
        <time>2021-06-10T16:45:44+02:00</time>
      </trkpt>
      <trkpt lat="44.42691" lon="6.48042">
        <ele>1972</ele>
        <time>2021-06-10T16:45:49+02:00</time>
      </trkpt>
      <trkpt lat="44.42623" lon="6.48084">
        <ele>1967</ele>
        <time>2021-06-10T16:45:54+02:00</time>
      </trkpt>
      <trkpt lat="44.42612" lon="6.48037">
        <ele>1956</ele>
        <time>2021-06-10T16:45:59+02:00</time>
      </trkpt>
      <trkpt lat="44.42554" lon="6.47964">
        <ele>1941</ele>
        <time>2021-06-10T16:46:04+02:00</time>
      </trkpt>
      <trkpt lat="44.42551" lon="6.47912">
        <ele>1928</ele>
        <time>2021-06-10T16:46:09+02:00</time>
      </trkpt>
      <trkpt lat="44.42429" lon="6.47807">
        <ele>1908</ele>
        <time>2021-06-10T16:46:14+02:00</time>
      </trkpt>
      <trkpt lat="44.42357" lon="6.47666">
        <ele>1891</ele>
        <time>2021-06-10T16:46:19+02:00</time>
      </trkpt>
      <trkpt lat="44.42288" lon="6.47567">
        <ele>1882</ele>
        <time>2021-06-10T16:46:24+02:00</time>
      </trkpt>
      <trkpt lat="44.42199" lon="6.47473">
        <ele>1887</ele>
        <time>2021-06-10T16:46:29+02:00</time>
      </trkpt>
      <trkpt lat="44.42224" lon="6.47411">
        <ele>1866</ele>
        <time>2021-06-10T16:46:34+02:00</time>
      </trkpt>
      <trkpt lat="44.42177" lon="6.47291">
        <ele>1857</ele>
        <time>2021-06-10T16:46:39+02:00</time>
      </trkpt>
      <trkpt lat="44.42177" lon="6.47191">
        <ele>1823</ele>
        <time>2021-06-10T16:46:44+02:00</time>
      </trkpt>
      <trkpt lat="44.42073" lon="6.47144">
        <ele>1809</ele>
        <time>2021-06-10T16:46:49+02:00</time>
      </trkpt>
      <trkpt lat="44.4199" lon="6.47113">
        <ele>1801</ele>
        <time>2021-06-10T16:46:54+02:00</time>
      </trkpt>
      <trkpt lat="44.41918" lon="6.4703">
        <ele>1774</ele>
        <time>2021-06-10T16:46:59+02:00</time>
      </trkpt>
      <trkpt lat="44.41951" lon="6.46993">
        <ele>1763</ele>
        <time>2021-06-10T16:47:04+02:00</time>
      </trkpt>
      <trkpt lat="44.41918" lon="6.46957">
        <ele>1754</ele>
        <time>2021-06-10T16:47:09+02:00</time>
      </trkpt>
      <trkpt lat="44.41994" lon="6.46904">
        <ele>1723</ele>
        <time>2021-06-10T16:47:14+02:00</time>
      </trkpt>
      <trkpt lat="44.41846" lon="6.46852">
        <ele>1709</ele>
        <time>2021-06-10T16:47:19+02:00</time>
      </trkpt>
      <trkpt lat="44.41785" lon="6.46753">
        <ele>1634</ele>
        <time>2021-06-10T16:47:24+02:00</time>
      </trkpt>
      <trkpt lat="44.41721" lon="6.46758">
        <ele>1587</ele>
        <time>2021-06-10T16:47:29+02:00</time>
      </trkpt>
      <trkpt lat="44.41706" lon="6.46847">
        <ele>1620</ele>
        <time>2021-06-10T16:47:34+02:00</time>
      </trkpt>
      <trkpt lat="44.41652" lon="6.46863">
        <ele>1572</ele>
        <time>2021-06-10T16:47:39+02:00</time>
      </trkpt>
      <trkpt lat="44.41656" lon="6.47035">
        <ele>1529</ele>
        <time>2021-06-10T16:47:44+02:00</time>
      </trkpt>
      <trkpt lat="44.4162" lon="6.47118">
        <ele>1507</ele>
        <time>2021-06-10T16:47:49+02:00</time>
      </trkpt>
      <trkpt lat="44.41581" lon="6.47118">
        <ele>1469</ele>
        <time>2021-06-10T16:47:54+02:00</time>
      </trkpt>
      <trkpt lat="44.41494" lon="6.47249">
        <ele>1455</ele>
        <time>2021-06-10T16:47:59+02:00</time>
      </trkpt>
      <trkpt lat="44.41415" lon="6.47202">
        <ele>1430</ele>
        <time>2021-06-10T16:48:04+02:00</time>
      </trkpt>
      <trkpt lat="44.41365" lon="6.47228">
        <ele>1444</ele>
        <time>2021-06-10T16:48:09+02:00</time>
      </trkpt>
      <trkpt lat="44.41286" lon="6.47181">
        <ele>1429</ele>
        <time>2021-06-10T16:48:14+02:00</time>
      </trkpt>
      <trkpt lat="44.41189" lon="6.47186">
        <ele>1429</ele>
        <time>2021-06-10T16:48:19+02:00</time>
      </trkpt>
      <trkpt lat="44.41113" lon="6.47207">
        <ele>1427</ele>
        <time>2021-06-10T16:48:24+02:00</time>
      </trkpt>
      <trkpt lat="44.41117" lon="6.46977">
        <ele>1390</ele>
        <time>2021-06-10T16:48:29+02:00</time>
      </trkpt>
      <trkpt lat="44.41074" lon="6.46977">
        <ele>1387</ele>
        <time>2021-06-10T16:48:34+02:00</time>
      </trkpt>
    </trkseg>
  </trk>
</gpx>